createdAt,value
2022-11-10T00:01:12.108Z,99.90
2022-11-10T00:03:41.288Z,99.90
2022-11-10T00:06:11.850Z,99.90
2022-11-10T00:08:40.084Z,99.90
2022-11-10T00:11:09.128Z,99.90
2022-11-10T00:14:00.009Z,99.90
2022-11-10T00:16:46.994Z,99.90
2022-11-10T00:19:15.348Z,99.90
2022-11-10T00:21:43.507Z,99.90
2022-11-10T00:24:11.702Z,99.90
2022-11-10T00:26:39.955Z,99.90
2022-11-10T00:29:08.172Z,99.90
2022-11-10T00:31:39.140Z,99.90
2022-11-10T00:34:08.821Z,99.90
2022-11-10T00:36:37.150Z,99.90
2022-11-10T00:39:06.305Z,99.90
2022-11-10T00:41:34.559Z,99.90
2022-11-10T00:44:03.051Z,99.90
2022-11-10T00:46:31.725Z,99.90
2022-11-10T00:49:01.394Z,99.90
2022-11-10T00:51:31.303Z,99.90
2022-11-10T00:53:59.588Z,99.90
2022-11-10T00:56:27.887Z,99.90
2022-11-10T00:58:56.686Z,99.90
2022-11-10T01:01:27.638Z,99.90
2022-11-10T01:03:57.406Z,99.90
2022-11-10T01:06:27.942Z,99.90
2022-11-10T01:08:56.316Z,99.90
2022-11-10T01:11:29.133Z,99.90
2022-11-10T01:13:58.678Z,99.90
2022-11-10T01:16:30.897Z,99.90
2022-11-10T01:19:02.352Z,99.90
2022-11-10T01:21:33.422Z,99.90
2022-11-10T01:24:02.476Z,99.90
2022-11-10T01:26:31.255Z,99.90
2022-11-10T01:29:00.137Z,99.90
2022-11-10T01:31:28.640Z,99.90
2022-11-10T01:33:57.349Z,99.90
2022-11-10T01:36:25.803Z,99.90
2022-11-10T01:38:55.771Z,99.90
2022-11-10T01:41:24.412Z,99.90
2022-11-10T01:43:52.802Z,99.90
2022-11-10T01:46:21.046Z,99.90
2022-11-10T01:48:55.430Z,99.90
2022-11-10T01:51:32.911Z,99.90
2022-11-10T01:54:08.711Z,99.90
2022-11-10T01:56:44.031Z,99.90
2022-11-10T01:59:16.175Z,99.90
2022-11-10T02:01:46.699Z,99.90
2022-11-10T02:04:18.658Z,99.90
2022-11-10T02:06:52.359Z,99.90
2022-11-10T02:09:23.311Z,99.90
2022-11-10T02:11:56.073Z,99.90
2022-11-10T02:14:24.640Z,99.90
2022-11-10T02:16:52.969Z,99.90
2022-11-10T02:19:26.337Z,99.90
2022-11-10T02:21:57.943Z,99.90
2022-11-10T02:24:26.240Z,99.90
2022-11-10T02:26:57.644Z,99.90
2022-11-10T02:29:27.728Z,99.90
2022-11-10T02:31:56.050Z,99.90
2022-11-10T02:34:24.269Z,99.90
2022-11-10T02:36:52.457Z,99.90
2022-11-10T02:39:22.044Z,99.90
2022-11-10T02:41:50.284Z,99.90
2022-11-10T02:44:18.547Z,99.90
2022-11-10T02:46:46.770Z,99.90
2022-11-10T02:49:15.040Z,99.90
2022-11-10T02:51:43.232Z,99.90
2022-11-10T02:54:11.595Z,99.90
2022-11-10T02:56:41.179Z,99.90
2022-11-10T02:59:09.596Z,99.90
2022-11-10T03:01:38.757Z,99.90
2022-11-10T03:04:07.798Z,99.90
2022-11-10T03:06:36.729Z,99.90
2022-11-10T03:09:06.110Z,99.90
2022-11-10T03:11:35.578Z,99.90
2022-11-10T03:14:05.824Z,99.90
2022-11-10T03:16:34.356Z,99.90
2022-11-10T03:19:06.021Z,97.30
2022-11-10T03:21:34.923Z,87.20
2022-11-10T03:24:03.626Z,83.70
2022-11-10T03:26:32.195Z,74.60
2022-11-10T03:29:00.778Z,54.30
2022-11-10T03:31:30.931Z,44.10
2022-11-10T03:34:00.141Z,48.70
2022-11-10T03:36:29.150Z,39.80
2022-11-10T03:38:58.408Z,37.00
2022-11-10T03:41:27.007Z,43.00
2022-11-10T03:43:56.290Z,29.60
2022-11-10T03:46:25.344Z,17.10
2022-11-10T03:48:55.160Z,13.60
2022-11-10T03:51:27.045Z,12.30
2022-11-10T03:53:55.417Z,9.10
2022-11-10T03:56:23.712Z,1.00
2022-11-10T03:58:52.415Z,4.80
2022-11-10T04:01:21.185Z,1.90
2022-11-10T04:03:51.669Z,1.00
2022-11-10T04:06:39.293Z,1.00
2022-11-10T04:09:10.102Z,1.00
2022-11-10T04:11:56.410Z,1.00
2022-11-10T04:14:42.642Z,1.00
2022-11-10T04:17:11.397Z,1.00
2022-11-10T04:19:40.562Z,1.00
2022-11-10T04:22:30.749Z,1.00
2022-11-10T04:24:59.440Z,1.00
2022-11-10T04:27:27.979Z,1.00
2022-11-10T04:29:56.745Z,1.00
2022-11-10T04:32:25.705Z,1.00
2022-11-10T04:34:54.721Z,1.00
2022-11-10T04:37:24.649Z,1.00
2022-11-10T04:39:53.038Z,1.00
2022-11-10T04:42:21.766Z,1.00
2022-11-10T04:44:51.072Z,1.00
2022-11-10T04:47:19.962Z,1.00
2022-11-10T04:49:48.921Z,1.00
2022-11-10T04:52:17.818Z,1.00
2022-11-10T04:54:48.210Z,1.00
2022-11-10T04:57:17.065Z,1.00
2022-11-10T04:59:46.001Z,1.00
2022-11-10T05:02:14.766Z,1.00
2022-11-10T05:04:43.503Z,1.00
2022-11-10T05:07:12.269Z,1.00
2022-11-10T05:09:40.906Z,1.00
2022-11-10T05:12:11.465Z,1.00
2022-11-10T05:14:40.186Z,1.00
2022-11-10T05:17:08.825Z,1.00
2022-11-10T05:19:37.585Z,1.00
2022-11-10T05:22:07.886Z,1.00
2022-11-10T05:24:36.523Z,1.00
2022-11-10T05:27:05.201Z,1.00
2022-11-10T05:29:35.236Z,1.00
2022-11-10T05:32:03.900Z,1.00
2022-11-10T05:34:32.441Z,1.00
2022-11-10T05:37:01.270Z,1.00
2022-11-10T05:39:30.158Z,1.00
2022-11-10T05:41:58.801Z,1.00
2022-11-10T05:44:27.159Z,1.00
2022-11-10T05:46:57.295Z,1.00
2022-11-10T05:49:27.306Z,1.00
2022-11-10T05:51:55.646Z,1.00
2022-11-10T05:54:23.931Z,1.00
2022-11-10T05:56:52.105Z,1.00
2022-11-10T05:59:20.258Z,1.00
2022-11-10T06:01:48.428Z,1.00
2022-11-10T06:04:17.936Z,1.00
2022-11-10T06:06:46.161Z,1.00
2022-11-10T06:09:14.395Z,1.00
2022-11-10T06:11:42.564Z,1.00
2022-11-10T06:14:10.702Z,1.00
2022-11-10T06:16:38.944Z,1.00
2022-11-10T06:19:07.362Z,1.00
2022-11-10T06:21:36.899Z,1.00
2022-11-10T06:24:05.595Z,1.00
2022-11-10T06:26:33.908Z,1.00
2022-11-10T06:29:02.302Z,1.00
2022-11-10T06:31:30.583Z,1.00
2022-11-10T06:33:58.835Z,1.00
2022-11-10T06:36:27.021Z,1.00
2022-11-10T06:38:56.766Z,1.00
2022-11-10T06:41:25.553Z,1.00
2022-11-10T06:43:53.822Z,1.00
2022-11-10T06:46:21.971Z,1.00
2022-11-10T06:48:50.073Z,1.00
2022-11-10T06:51:18.408Z,1.00
2022-11-10T06:53:47.450Z,3.10
2022-11-10T06:56:17.014Z,9.80
2022-11-10T06:58:45.179Z,13.70
2022-11-10T07:01:13.487Z,17.10
2022-11-10T07:03:58.794Z,22.20
2022-11-10T07:06:29.988Z,31.00
2022-11-10T07:08:58.260Z,44.30
2022-11-10T07:11:27.824Z,48.80
2022-11-10T07:13:56.011Z,48.40
2022-11-10T07:16:24.707Z,54.20
2022-11-10T07:18:52.920Z,59.40
2022-11-10T07:21:21.112Z,47.20
2022-11-10T07:23:49.330Z,27.10
2022-11-10T07:26:17.569Z,18.40
2022-11-10T07:28:47.137Z,4.50
2022-11-10T07:31:15.375Z,1.00
2022-11-10T07:33:44.112Z,1.00
2022-11-10T07:36:12.382Z,1.00
2022-11-10T07:38:41.067Z,1.00
2022-11-10T07:41:09.535Z,1.00
2022-11-10T07:43:38.100Z,1.00
2022-11-10T07:46:07.797Z,1.00
2022-11-10T07:48:38.257Z,1.00
2022-11-10T07:51:06.909Z,1.00
2022-11-10T07:53:35.153Z,1.00
2022-11-10T07:56:03.432Z,1.00
2022-11-10T07:58:32.751Z,1.00
2022-11-10T08:01:01.046Z,1.00
2022-11-10T08:03:30.761Z,1.00
2022-11-10T08:05:59.463Z,1.00
2022-11-10T08:08:27.789Z,1.00
2022-11-10T08:10:59.129Z,1.00
2022-11-10T08:13:27.298Z,1.00
2022-11-10T08:15:57.187Z,1.00
2022-11-10T08:18:27.649Z,1.00
2022-11-10T08:21:02.110Z,1.00
2022-11-10T08:23:30.327Z,1.00
2022-11-10T08:26:00.913Z,1.00
2022-11-10T08:28:29.567Z,1.00
2022-11-10T08:31:02.832Z,1.00
2022-11-10T08:33:33.664Z,1.00
2022-11-10T08:36:03.696Z,1.00
2022-11-10T08:38:31.915Z,1.00
2022-11-10T08:41:00.182Z,1.00
2022-11-10T08:43:28.737Z,1.00
2022-11-10T08:45:57.865Z,1.00
2022-11-10T08:48:26.493Z,1.00
2022-11-10T08:50:55.066Z,1.00
2022-11-10T08:53:25.674Z,1.00
2022-11-10T08:55:58.941Z,1.00
2022-11-10T08:58:27.172Z,1.00
2022-11-10T09:00:55.637Z,1.00
2022-11-10T09:03:25.960Z,1.00
2022-11-10T09:05:58.245Z,1.00
2022-11-10T09:08:28.389Z,1.00
2022-11-10T09:10:57.568Z,1.00
2022-11-10T09:13:29.793Z,1.00
2022-11-10T09:16:02.148Z,1.00
2022-11-10T09:18:30.975Z,1.00
2022-11-10T09:20:59.458Z,1.00
2022-11-10T09:23:29.082Z,1.00
2022-11-10T09:25:57.914Z,1.00
2022-11-10T09:28:26.796Z,99.90
2022-11-10T09:30:57.370Z,1.00
2022-11-10T09:33:26.168Z,99.90
2022-11-10T09:35:59.954Z,99.90
2022-11-10T09:38:29.824Z,99.90
2022-11-10T09:41:03.433Z,99.90
2022-11-10T09:43:42.259Z,99.90
2022-11-10T09:46:18.304Z,99.90
2022-11-10T09:48:53.856Z,99.90
2022-11-10T09:51:27.843Z,99.90
2022-11-10T09:54:02.476Z,16.70
2022-11-10T09:56:35.377Z,1.00
2022-11-10T09:59:15.822Z,99.90
2022-11-10T10:01:52.174Z,99.90
2022-11-10T10:04:51.628Z,24.60
2022-11-10T10:07:30.837Z,1.00
2022-11-10T10:10:17.355Z,1.00
2022-11-10T10:13:15.544Z,1.00
2022-11-10T10:16:00.057Z,1.00
2022-11-10T10:18:35.756Z,1.00
2022-11-10T10:21:30.288Z,1.00
2022-11-10T10:24:13.995Z,1.00
2022-11-10T10:26:53.863Z,1.00
2022-11-10T10:29:26.178Z,54.00
2022-11-10T10:31:55.082Z,1.00
2022-11-10T10:34:29.321Z,1.00
2022-11-10T10:36:57.678Z,99.90
2022-11-10T10:39:33.321Z,1.00
2022-11-10T10:42:02.910Z,99.90
2022-11-10T10:44:31.097Z,99.90
2022-11-10T10:47:02.969Z,1.00
2022-11-10T10:49:33.596Z,99.90
2022-11-10T10:52:11.520Z,1.00
2022-11-10T10:54:41.514Z,6.10
2022-11-10T10:57:23.935Z,1.00
2022-11-10T10:59:53.125Z,1.00
2022-11-10T11:02:29.391Z,1.00
2022-11-10T11:05:16.589Z,99.90
2022-11-10T11:07:56.867Z,1.00
2022-11-10T11:10:27.878Z,1.00
2022-11-10T11:13:15.625Z,99.90
2022-11-10T11:15:43.836Z,99.90
2022-11-10T11:18:16.419Z,99.90
2022-11-10T11:21:02.610Z,99.90
2022-11-10T11:23:50.421Z,99.90
2022-11-10T11:26:29.388Z,24.30
2022-11-10T11:29:18.591Z,1.00
2022-11-10T11:32:02.625Z,1.00
2022-11-10T11:34:44.315Z,1.00
2022-11-10T11:37:25.058Z,1.00
2022-11-10T11:40:12.735Z,1.00
2022-11-10T11:42:57.558Z,99.90
2022-11-10T11:45:40.411Z,1.00
2022-11-10T11:48:47.702Z,99.90
2022-11-10T11:51:28.437Z,1.00
2022-11-10T11:54:28.092Z,99.90
2022-11-10T11:57:18.106Z,99.90
2022-11-10T12:00:05.528Z,99.90
2022-11-10T12:03:18.798Z,1.00
2022-11-10T12:06:06.051Z,1.00
2022-11-10T12:08:45.307Z,1.00
2022-11-10T12:11:27.886Z,37.20
2022-11-10T12:14:10.828Z,1.00
2022-11-10T12:16:48.395Z,99.90
2022-11-10T12:19:32.143Z,1.00
2022-11-10T12:22:14.062Z,2.30
2022-11-10T12:25:12.912Z,1.00
2022-11-10T12:27:48.281Z,1.00
2022-11-10T12:30:19.299Z,1.00
2022-11-10T12:32:54.091Z,1.00
2022-11-10T12:35:29.535Z,1.00
2022-11-10T12:38:08.003Z,1.00
2022-11-10T12:40:42.184Z,1.00
2022-11-10T12:43:23.968Z,1.00
2022-11-10T12:45:59.319Z,99.90
2022-11-10T12:48:37.008Z,26.40
2022-11-10T12:51:14.836Z,1.00
2022-11-10T12:53:45.735Z,1.00
2022-11-10T12:56:23.595Z,1.00
2022-11-10T12:59:27.602Z,99.90
2022-11-10T13:02:03.813Z,1.00
2022-11-10T13:04:33.603Z,1.00
2022-11-10T13:07:12.866Z,1.00
2022-11-10T13:09:45.330Z,99.90
2022-11-10T13:12:23.111Z,1.00
2022-11-10T13:14:51.397Z,1.00
2022-11-10T13:17:55.539Z,1.00
2022-11-10T13:20:53.936Z,99.90
2022-11-10T13:23:26.776Z,1.00
2022-11-10T13:25:59.340Z,1.00
2022-11-10T13:29:02.758Z,1.00
2022-11-10T13:31:53.901Z,1.00
2022-11-10T13:34:34.635Z,1.00
2022-11-10T13:37:05.277Z,1.00
2022-11-10T13:39:35.611Z,99.90
2022-11-10T13:42:19.697Z,1.00
2022-11-10T13:44:48.593Z,1.00
2022-11-10T13:47:51.146Z,99.90
2022-11-10T13:50:36.978Z,99.90
2022-11-10T13:53:27.693Z,99.90
2022-11-10T13:56:18.044Z,99.90
2022-11-10T13:58:47.236Z,99.90
2022-11-10T14:01:30.466Z,1.00
2022-11-10T14:04:02.417Z,99.90
2022-11-10T14:06:45.224Z,1.00
2022-11-10T14:09:28.965Z,1.00
2022-11-10T14:12:07.010Z,1.00
2022-11-10T14:14:51.286Z,1.00
2022-11-10T14:17:27.747Z,1.00
2022-11-10T14:19:56.359Z,99.90
2022-11-10T14:22:34.299Z,99.90
2022-11-10T14:25:15.220Z,1.00
2022-11-10T14:27:46.641Z,49.60
2022-11-10T14:30:24.688Z,1.00
2022-11-10T14:33:00.098Z,1.00
2022-11-10T14:35:31.846Z,1.00
2022-11-10T14:38:01.516Z,99.90
2022-11-10T14:40:33.885Z,1.00
2022-11-10T14:43:03.486Z,1.00
2022-11-10T14:45:31.815Z,1.00
2022-11-10T14:48:01.448Z,1.00
2022-11-10T14:50:33.808Z,99.90
2022-11-10T14:53:08.129Z,90.00
2022-11-10T14:55:37.864Z,99.90
2022-11-10T14:58:15.664Z,99.90
2022-11-10T15:00:45.765Z,99.90
2022-11-10T15:03:20.587Z,99.90
2022-11-10T15:05:50.224Z,99.90
2022-11-10T15:08:19.585Z,99.90
2022-11-10T15:10:51.007Z,99.90
2022-11-10T15:13:36.961Z,99.90
2022-11-10T15:16:28.059Z,99.90
2022-11-10T15:18:57.488Z,99.90
2022-11-10T15:21:34.389Z,99.90
2022-11-10T15:24:07.424Z,99.90
2022-11-10T15:26:41.221Z,99.90
2022-11-10T15:29:22.718Z,1.00
2022-11-10T15:31:53.055Z,99.90
2022-11-10T15:34:42.238Z,99.90
2022-11-10T15:37:31.091Z,99.90
2022-11-10T15:40:33.902Z,99.90
2022-11-10T15:43:16.697Z,99.90
2022-11-10T15:45:51.081Z,99.90
2022-11-10T15:48:19.988Z,99.90
2022-11-10T15:50:54.522Z,99.90
2022-11-10T15:53:29.122Z,99.90
2022-11-10T15:55:57.429Z,99.90
2022-11-10T15:58:26.192Z,99.90
2022-11-10T16:00:56.218Z,99.90
2022-11-10T16:03:25.303Z,99.90
2022-11-10T16:05:53.477Z,99.90
2022-11-10T16:08:24.535Z,99.90
2022-11-10T16:10:56.783Z,99.90
2022-11-10T16:13:30.041Z,99.90
2022-11-10T16:16:01.317Z,1.00
2022-11-10T16:18:31.751Z,1.00
2022-11-10T16:21:00.160Z,1.00
2022-11-10T16:23:28.392Z,1.00
2022-11-10T16:25:58.453Z,1.00
2022-11-10T16:28:29.388Z,1.00
2022-11-10T16:30:59.538Z,1.00
2022-11-10T16:33:29.151Z,1.00
2022-11-10T16:35:57.800Z,1.00
2022-11-10T16:38:29.789Z,1.00
2022-11-10T16:41:01.420Z,1.00
2022-11-10T16:43:31.948Z,1.00
2022-11-10T16:46:05.694Z,1.00
2022-11-10T16:48:37.583Z,1.00
2022-11-10T16:51:06.343Z,1.00
2022-11-10T16:53:34.569Z,1.00
2022-11-10T16:56:02.771Z,1.00
2022-11-10T16:58:31.019Z,1.00
2022-11-10T17:01:03.531Z,1.00
2022-11-10T17:03:35.333Z,1.00
2022-11-10T17:06:05.219Z,1.00
2022-11-10T17:08:36.429Z,1.00
2022-11-10T17:11:04.755Z,1.00
2022-11-10T17:13:33.131Z,1.00
2022-11-10T17:16:07.863Z,1.00
2022-11-10T17:18:36.882Z,1.00
2022-11-10T17:21:07.337Z,1.00
2022-11-10T17:23:36.732Z,1.00
2022-11-10T17:26:05.221Z,1.00
2022-11-10T17:28:33.383Z,1.00
2022-11-10T17:31:03.831Z,1.00
2022-11-10T17:33:32.318Z,1.00
2022-11-10T17:36:04.914Z,1.00
2022-11-10T17:38:34.572Z,1.00
2022-11-10T17:41:02.885Z,1.00
2022-11-10T17:43:31.357Z,1.00
2022-11-10T17:45:59.713Z,1.00
2022-11-10T17:48:29.290Z,1.00
2022-11-10T17:50:57.543Z,1.00
2022-11-10T17:53:28.266Z,1.00
2022-11-10T17:55:56.864Z,1.00
2022-11-10T17:58:25.094Z,1.00
2022-11-10T18:00:53.315Z,1.00
2022-11-10T18:03:23.967Z,1.00
2022-11-10T18:05:53.866Z,1.00
2022-11-10T18:08:21.998Z,1.00
2022-11-10T18:10:52.320Z,1.00
2022-11-10T18:13:21.298Z,1.00
2022-11-10T18:15:50.417Z,1.00
2022-11-10T18:18:19.588Z,1.00
2022-11-10T18:20:47.982Z,1.00
2022-11-10T18:23:17.765Z,1.00
2022-11-10T18:25:46.001Z,1.00
2022-11-10T18:28:16.249Z,1.00
2022-11-10T18:30:45.100Z,1.00
2022-11-10T18:33:14.294Z,1.00
2022-11-10T18:35:42.465Z,1.00
2022-11-10T18:38:13.340Z,1.00
2022-11-10T18:40:43.862Z,1.00
2022-11-10T18:43:12.099Z,1.00
2022-11-10T18:45:41.535Z,6.40
2022-11-10T18:48:09.960Z,4.00
2022-11-10T18:50:39.664Z,4.70
2022-11-10T18:53:07.928Z,15.00
2022-11-10T18:55:36.315Z,13.10
2022-11-10T18:58:05.932Z,14.90
2022-11-10T19:00:34.258Z,18.40
2022-11-10T19:03:02.419Z,17.20
2022-11-10T19:05:30.600Z,26.70
2022-11-10T19:07:58.956Z,28.30
2022-11-10T19:10:27.125Z,24.60
2022-11-10T19:12:55.296Z,28.50
2022-11-10T19:15:24.865Z,32.70
2022-11-10T19:17:53.338Z,21.00
2022-11-10T19:20:21.517Z,22.20
2022-11-10T19:22:49.728Z,24.80
2022-11-10T19:25:18.033Z,34.40
2022-11-10T19:27:46.530Z,42.70
2022-11-10T19:30:15.559Z,41.40
2022-11-10T19:32:45.172Z,49.10
2022-11-10T19:35:13.577Z,42.80
2022-11-10T19:37:42.017Z,33.00
2022-11-10T19:40:12.133Z,31.60
2022-11-10T19:42:40.293Z,37.10
2022-11-10T19:45:10.163Z,35.10
2022-11-10T19:47:38.611Z,39.60
2022-11-10T19:50:09.553Z,42.70
2022-11-10T19:52:37.865Z,39.00
2022-11-10T19:55:07.654Z,39.40
2022-11-10T19:57:35.889Z,33.70
2022-11-10T20:00:06.667Z,28.60
2022-11-10T20:02:35.350Z,20.90
2022-11-10T20:05:16.331Z,23.30
2022-11-10T20:08:18.139Z,19.80
2022-11-10T20:10:47.046Z,18.10
2022-11-10T20:13:15.242Z,15.40
2022-11-10T20:15:45.414Z,16.10
2022-11-10T20:18:13.722Z,13.20
2022-11-10T20:20:42.258Z,2.20
2022-11-10T20:23:13.293Z,1.00
2022-11-10T20:25:41.509Z,1.00
2022-11-10T20:28:10.146Z,1.00
2022-11-10T20:30:44.014Z,1.00
2022-11-10T20:33:12.761Z,1.00
2022-11-10T20:35:42.920Z,1.00
2022-11-10T20:38:12.513Z,1.00
2022-11-10T20:40:45.013Z,1.00
2022-11-10T20:43:14.792Z,1.00
2022-11-10T20:45:43.567Z,1.00
2022-11-10T20:48:11.747Z,1.00
2022-11-10T20:50:41.769Z,1.00
2022-11-10T20:53:10.093Z,1.00
2022-11-10T20:55:53.528Z,1.00
2022-11-10T20:58:22.334Z,1.00
2022-11-10T21:00:50.533Z,1.00
2022-11-10T21:03:18.962Z,1.00
2022-11-10T21:05:47.382Z,1.00
2022-11-10T21:08:15.618Z,1.00
2022-11-10T21:10:52.181Z,1.00
2022-11-10T21:13:20.357Z,1.00
2022-11-10T21:15:53.130Z,1.00
2022-11-10T21:18:22.056Z,1.00
2022-11-10T21:20:51.384Z,1.00
2022-11-10T21:23:21.897Z,1.00
2022-11-10T21:25:58.609Z,1.00
2022-11-10T21:28:28.101Z,1.00
2022-11-10T21:31:04.902Z,1.00
2022-11-10T21:33:33.126Z,1.00
2022-11-10T21:36:07.428Z,1.00
2022-11-10T21:38:36.638Z,1.00
2022-11-10T21:41:06.671Z,1.00
2022-11-10T21:43:35.364Z,1.00
2022-11-10T21:46:06.654Z,1.00
2022-11-10T21:48:36.440Z,1.00
2022-11-10T21:51:07.786Z,1.00
2022-11-10T21:53:39.036Z,1.00
2022-11-10T21:56:12.127Z,1.00
2022-11-10T21:58:41.102Z,1.00
2022-11-10T22:01:12.904Z,1.00
2022-11-10T22:03:41.753Z,1.00
2022-11-10T22:06:13.056Z,1.00
2022-11-10T22:08:44.102Z,1.00
2022-11-10T22:11:33.848Z,1.00
2022-11-10T22:14:19.984Z,1.00
2022-11-10T22:17:08.083Z,1.00
2022-11-10T22:19:38.147Z,1.00
2022-11-10T22:22:06.374Z,1.00
2022-11-10T22:24:34.520Z,1.00
2022-11-10T22:27:05.524Z,1.00
2022-11-10T22:29:35.134Z,1.00
2022-11-10T22:32:04.287Z,1.00
2022-11-10T22:34:32.498Z,1.00
2022-11-10T22:37:00.653Z,1.00
2022-11-10T22:39:49.389Z,1.00
2022-11-10T22:42:36.572Z,1.00
2022-11-10T22:45:05.377Z,1.00
2022-11-10T22:47:53.870Z,1.00
2022-11-10T22:50:22.297Z,1.00
2022-11-10T22:52:50.427Z,1.00
2022-11-10T22:55:18.640Z,1.00
2022-11-10T22:57:48.241Z,1.00
2022-11-10T23:00:18.311Z,1.00
2022-11-10T23:02:46.474Z,1.00
2022-11-10T23:05:15.194Z,1.00
2022-11-10T23:07:43.330Z,1.00
2022-11-10T23:10:11.975Z,1.00
2022-11-10T23:12:40.192Z,1.00
2022-11-10T23:15:11.015Z,8.10
2022-11-10T23:17:39.138Z,11.50
2022-11-10T23:20:08.996Z,11.10
2022-11-10T23:22:37.306Z,12.40
2022-11-10T23:25:06.667Z,10.60
2022-11-10T23:27:35.332Z,1.00
2022-11-10T23:30:03.538Z,1.00
2022-11-10T23:32:33.070Z,2.70
2022-11-10T23:35:01.217Z,3.60
2022-11-10T23:37:29.383Z,12.60
2022-11-10T23:39:57.569Z,11.50
2022-11-10T23:42:27.681Z,17.20
2022-11-10T23:44:56.016Z,19.50
2022-11-10T23:47:24.213Z,13.80
2022-11-10T23:49:53.776Z,17.50
2022-11-10T23:52:21.961Z,25.80
2022-11-10T23:54:50.216Z,21.00
2022-11-10T23:57:18.368Z,31.40
2022-11-10T23:59:46.541Z,34.20
